sensor_id;sensor_type;location;lat;lon;timestamp;pressure;altitude;pressure_sealevel;temperature;humidity
54459;BME280;40368;49.350;8.152;2022-07-18T00:00:28;1009.1;;;26.6;25.08
54459;BME280;40368;49.350;8.152;2022-07-18T00:01:28;1009.1;;;26.54;25.13
54459;BME280;40368;49.350;8.152;2022-07-18T00:02:28;1009;;;26.5;25.47
54459;BME280;40368;49.350;8.152;2022-07-18T00:03:28;1009;;;26.39;25.43
54459;BME280;40368;49.350;8.152;2022-07-18T00:04:28;1009;;;26.36;25.45
54459;BME280;40368;49.350;8.152;2022-07-18T00:05:28;1009.1;;;26.47;25.64
54459;BME280;40368;49.350;8.152;2022-07-18T00:06:28;1009.1;;;26.52;25.3
54459;BME280;40368;49.350;8.152;2022-07-18T00:07:28;1009.1;;;26.5;25.39
54459;BME280;40368;49.350;8.152;2022-07-18T00:08:28;1009.1;;;26.54;25.26
54459;BME280;40368;49.350;8.152;2022-07-18T00:09:28;1009.1;;;26.54;25.11
54459;BME280;40368;49.350;8.152;2022-07-18T00:10:28;1009.1;;;26.61;25.21
54459;BME280;40368;49.350;8.152;2022-07-18T00:11:29;1009.1;;;26.56;25.26
54459;BME280;40368;49.350;8.152;2022-07-18T00:12:28;1009;;;26.43;25.54
54459;BME280;40368;49.350;8.152;2022-07-18T00:13:34;1009.1;;;26.36;25.45
54459;BME280;40368;49.350;8.152;2022-07-18T00:14:28;1009;;;26.3;25.28
54459;BME280;40368;49.350;8.152;2022-07-18T00:15:28;1009.1;;;26.26;25.84
54459;BME280;40368;49.350;8.152;2022-07-18T00:16:28;1009.1;;;26.29;25.6
54459;BME280;40368;49.350;8.152;2022-07-18T00:17:28;1009.1;;;26.31;25.39
54459;BME280;40368;49.350;8.152;2022-07-18T00:18:28;1009.1;;;26.3;25.41
54459;BME280;40368;49.350;8.152;2022-07-18T00:19:29;1009.1;;;26.24;25.56
54459;BME280;40368;49.350;8.152;2022-07-18T00:20:28;1009.1;;;26.17;25.8
54459;BME280;40368;49.350;8.152;2022-07-18T00:21:28;1009.1;;;26.19;25.64
54459;BME280;40368;49.350;8.152;2022-07-18T00:22:28;1009.1;;;26.19;25.93
54459;BME280;40368;49.350;8.152;2022-07-18T00:23:22;1009.1;;;26.22;25.79
54459;BME280;40368;49.350;8.152;2022-07-18T00:24:28;1009.2;;;26.22;25.84
54459;BME280;40368;49.350;8.152;2022-07-18T00:25:28;1009.1;;;26.2;26.43
54459;BME280;40368;49.350;8.152;2022-07-18T00:26:28;1009.1;;;26.1;26.04
54459;BME280;40368;49.350;8.152;2022-07-18T00:27:28;1009.1;;;26.14;25.97
54459;BME280;40368;49.350;8.152;2022-07-18T00:28:28;1009.1;;;26.12;25.94
54459;BME280;40368;49.350;8.152;2022-07-18T00:29:28;1009;;;26.15;25.99
54459;BME280;40368;49.350;8.152;2022-07-18T00:30:28;1009.1;;;26.04;26.14
54459;BME280;40368;49.350;8.152;2022-07-18T00:31:28;1009.1;;;25.97;26.22
54459;BME280;40368;49.350;8.152;2022-07-18T00:32:28;1009.1;;;25.99;26.38
54459;BME280;40368;49.350;8.152;2022-07-18T00:33:28;1009.1;;;26.01;26.28
54459;BME280;40368;49.350;8.152;2022-07-18T00:34:28;1009.1;;;26.01;26.2
54459;BME280;40368;49.350;8.152;2022-07-18T00:35:28;1009.1;;;25.97;26.33
54459;BME280;40368;49.350;8.152;2022-07-18T00:36:29;1009.1;;;25.93;26.17
54459;BME280;40368;49.350;8.152;2022-07-18T00:37:28;1009.2;;;25.88;26.45
54459;BME280;40368;49.350;8.152;2022-07-18T00:38:28;1009.1;;;25.88;26.38
54459;BME280;40368;49.350;8.152;2022-07-18T00:39:28;1009.1;;;25.88;26.53
54459;BME280;40368;49.350;8.152;2022-07-18T00:40:28;1009.1;;;25.89;26.4
54459;BME280;40368;49.350;8.152;2022-07-18T00:41:29;1009.1;;;25.85;26.43
54459;BME280;40368;49.350;8.152;2022-07-18T00:42:28;1009.1;;;25.87;26.39
54459;BME280;40368;49.350;8.152;2022-07-18T00:43:28;1009.1;;;25.82;26.21
54459;BME280;40368;49.350;8.152;2022-07-18T00:44:28;1009.1;;;25.76;26.41
54459;BME280;40368;49.350;8.152;2022-07-18T00:45:29;1009.1;;;25.74;26.42
54459;BME280;40368;49.350;8.152;2022-07-18T00:46:30;1009.1;;;25.62;26.58
54459;BME280;40368;49.350;8.152;2022-07-18T00:47:28;1009.1;;;25.59;26.54
54459;BME280;40368;49.350;8.152;2022-07-18T00:48:28;1009.1;;;25.61;26.89
54459;BME280;40368;49.350;8.152;2022-07-18T00:49:29;1009.1;;;25.64;26.57
54459;BME280;40368;49.350;8.152;2022-07-18T00:50:28;1009.1;;;25.73;26.56
54459;BME280;40368;49.350;8.152;2022-07-18T00:51:28;1009.1;;;25.8;26.5
54459;BME280;40368;49.350;8.152;2022-07-18T00:52:28;1009;;;25.74;26.29
54459;BME280;40368;49.350;8.152;2022-07-18T00:53:29;1009.1;;;25.75;26.63
54459;BME280;40368;49.350;8.152;2022-07-18T00:54:28;1009;;;25.77;26.49
54459;BME280;40368;49.350;8.152;2022-07-18T00:55:28;1009;;;25.77;26.81
54459;BME280;40368;49.350;8.152;2022-07-18T00:56:28;1009;;;25.76;26.58
54459;BME280;40368;49.350;8.152;2022-07-18T00:57:28;1009;;;25.71;26.67
54459;BME280;40368;49.350;8.152;2022-07-18T00:58:29;1009;;;25.64;26.76
54459;BME280;40368;49.350;8.152;2022-07-18T00:59:28;1009;;;25.58;26.85
54459;BME280;40368;49.350;8.152;2022-07-18T01:00:29;1009;;;25.55;26.86
54459;BME280;40368;49.350;8.152;2022-07-18T01:01:29;1009;;;25.51;26.83
54459;BME280;40368;49.350;8.152;2022-07-18T01:02:28;1009;;;25.57;27.01
54459;BME280;40368;49.350;8.152;2022-07-18T01:03:28;1009;;;25.67;27.05
54459;BME280;40368;49.350;8.152;2022-07-18T01:04:28;1009;;;25.69;26.74
54459;BME280;40368;49.350;8.152;2022-07-18T01:05:28;1009;;;25.73;26.81
54459;BME280;40368;49.350;8.152;2022-07-18T01:06:28;1009;;;25.78;26.7
54459;BME280;40368;49.350;8.152;2022-07-18T01:07:28;1009;;;25.79;26.68
54459;BME280;40368;49.350;8.152;2022-07-18T01:08:28;1009;;;25.71;26.66
54459;BME280;40368;49.350;8.152;2022-07-18T01:10:28;1009;;;25.62;26.54
54459;BME280;40368;49.350;8.152;2022-07-18T01:12:06;1008.9;;;25.55;26.95
54459;BME280;40368;49.350;8.152;2022-07-18T01:13:01;1009;;;25.52;26.8
54459;BME280;40368;49.350;8.152;2022-07-18T01:14:15;1008.9;;;25.47;26.9
54459;BME280;40368;49.350;8.152;2022-07-18T01:15:29;1008.9;;;25.45;27.04
54459;BME280;40368;49.350;8.152;2022-07-18T01:16:43;1008.9;;;25.35;27.23
54459;BME280;40368;49.350;8.152;2022-07-18T01:17:22;1008.9;;;25.27;27.51
54459;BME280;40368;49.350;8.152;2022-07-18T01:18:00;1008.9;;;25.3;27.25
54459;BME280;40368;49.350;8.152;2022-07-18T01:18:36;1008.9;;;25.26;27.25
54459;BME280;40368;49.350;8.152;2022-07-18T01:19:28;1008.9;;;25.2;27.59
54459;BME280;40368;49.350;8.152;2022-07-18T01:20:29;1008.9;;;25.11;27.58
54459;BME280;40368;49.350;8.152;2022-07-18T01:21:28;1008.9;;;25.08;27.62
54459;BME280;40368;49.350;8.152;2022-07-18T01:22:28;1008.9;;;25.08;27.56
54459;BME280;40368;49.350;8.152;2022-07-18T01:23:28;1009;;;25.07;27.54
54459;BME280;40368;49.350;8.152;2022-07-18T01:24:28;1008.9;;;25.1;27.59
54459;BME280;40368;49.350;8.152;2022-07-18T01:25:28;1008.9;;;25.14;27.55
54459;BME280;40368;49.350;8.152;2022-07-18T01:26:28;1008.9;;;25.13;27.64
54459;BME280;40368;49.350;8.152;2022-07-18T01:27:28;1008.9;;;25.1;27.58
54459;BME280;40368;49.350;8.152;2022-07-18T01:28:28;1009;;;25.05;27.49
54459;BME280;40368;49.350;8.152;2022-07-18T01:29:28;1008.9;;;25.05;27.33
54459;BME280;40368;49.350;8.152;2022-07-18T01:30:28;1009;;;24.99;27.66
54459;BME280;40368;49.350;8.152;2022-07-18T01:31:28;1009;;;25.01;27.57
54459;BME280;40368;49.350;8.152;2022-07-18T01:32:28;1009;;;25.06;27.54
54459;BME280;40368;49.350;8.152;2022-07-18T01:33:30;1009;;;25.04;27.64
54459;BME280;40368;49.350;8.152;2022-07-18T01:34:28;1009;;;25.01;27.74
54459;BME280;40368;49.350;8.152;2022-07-18T01:35:29;1009;;;25.01;27.56
54459;BME280;40368;49.350;8.152;2022-07-18T01:36:28;1008.9;;;24.94;27.61
54459;BME280;40368;49.350;8.152;2022-07-18T01:37:28;1009;;;24.91;27.68
54459;BME280;40368;49.350;8.152;2022-07-18T01:38:28;1009;;;24.89;27.78
54459;BME280;40368;49.350;8.152;2022-07-18T01:39:30;1009;;;24.94;27.79
54459;BME280;40368;49.350;8.152;2022-07-18T01:40:28;1009;;;24.91;27.88
54459;BME280;40368;49.350;8.152;2022-07-18T01:41:28;1009;;;24.92;27.76
54459;BME280;40368;49.350;8.152;2022-07-18T01:42:28;1009;;;24.89;27.83
54459;BME280;40368;49.350;8.152;2022-07-18T01:43:28;1009;;;24.87;27.92
54459;BME280;40368;49.350;8.152;2022-07-18T01:44:29;1009;;;24.88;27.81
54459;BME280;40368;49.350;8.152;2022-07-18T01:45:29;1008.9;;;24.88;27.9
54459;BME280;40368;49.350;8.152;2022-07-18T01:46:28;1008.9;;;24.94;27.88
54459;BME280;40368;49.350;8.152;2022-07-18T01:47:28;1009;;;24.86;28.12
54459;BME280;40368;49.350;8.152;2022-07-18T01:48:28;1009;;;24.82;28.01
54459;BME280;40368;49.350;8.152;2022-07-18T01:49:29;1008.9;;;24.8;28.03
54459;BME280;40368;49.350;8.152;2022-07-18T01:50:28;1009;;;24.82;28.37
54459;BME280;40368;49.350;8.152;2022-07-18T01:51:29;1009;;;24.85;28.16
54459;BME280;40368;49.350;8.152;2022-07-18T01:52:28;1009;;;24.84;28.11
54459;BME280;40368;49.350;8.152;2022-07-18T01:53:28;1008.9;;;24.91;28.2
54459;BME280;40368;49.350;8.152;2022-07-18T01:54:31;1009;;;24.96;27.9
54459;BME280;40368;49.350;8.152;2022-07-18T01:55:28;1009;;;24.96;27.83
54459;BME280;40368;49.350;8.152;2022-07-18T01:56:28;1009;;;24.96;27.79
54459;BME280;40368;49.350;8.152;2022-07-18T01:57:28;1009;;;24.95;27.73
54459;BME280;40368;49.350;8.152;2022-07-18T01:58:28;1009;;;25.01;27.77
54459;BME280;40368;49.350;8.152;2022-07-18T01:59:28;1009;;;25.02;27.7
54459;BME280;40368;49.350;8.152;2022-07-18T02:00:28;1009;;;25.01;27.67
54459;BME280;40368;49.350;8.152;2022-07-18T02:01:28;1009;;;24.97;27.68
54459;BME280;40368;49.350;8.152;2022-07-18T02:02:28;1009;;;24.93;27.74
54459;BME280;40368;49.350;8.152;2022-07-18T02:03:28;1009;;;24.91;27.95
54459;BME280;40368;49.350;8.152;2022-07-18T02:04:28;1009;;;24.87;27.82
54459;BME280;40368;49.350;8.152;2022-07-18T02:05:28;1009;;;24.86;28.03
54459;BME280;40368;49.350;8.152;2022-07-18T02:06:28;1009;;;24.86;27.82
54459;BME280;40368;49.350;8.152;2022-07-18T02:07:29;1009;;;24.85;28
54459;BME280;40368;49.350;8.152;2022-07-18T02:08:28;1009;;;24.88;27.97
54459;BME280;40368;49.350;8.152;2022-07-18T02:09:28;1009;;;24.88;27.89
54459;BME280;40368;49.350;8.152;2022-07-18T02:10:29;1009;;;24.81;27.81
54459;BME280;40368;49.350;8.152;2022-07-18T02:11:28;1008.9;;;24.8;28.11
54459;BME280;40368;49.350;8.152;2022-07-18T02:12:28;1008.9;;;24.87;27.78
54459;BME280;40368;49.350;8.152;2022-07-18T02:13:28;1008.9;;;24.89;27.78
54459;BME280;40368;49.350;8.152;2022-07-18T02:14:29;1008.9;;;24.85;27.92
54459;BME280;40368;49.350;8.152;2022-07-18T02:15:28;1008.9;;;24.84;27.98
54459;BME280;40368;49.350;8.152;2022-07-18T02:16:28;1008.9;;;24.8;27.87
54459;BME280;40368;49.350;8.152;2022-07-18T02:17:28;1008.9;;;24.79;28.21
54459;BME280;40368;49.350;8.152;2022-07-18T02:18:28;1008.9;;;24.75;27.98
54459;BME280;40368;49.350;8.152;2022-07-18T02:19:28;1009;;;24.72;28.21
54459;BME280;40368;49.350;8.152;2022-07-18T02:20:28;1009;;;24.67;28.26
54459;BME280;40368;49.350;8.152;2022-07-18T02:21:28;1008.9;;;24.74;28.08
54459;BME280;40368;49.350;8.152;2022-07-18T02:22:29;1008.9;;;24.75;28.09
54459;BME280;40368;49.350;8.152;2022-07-18T02:23:28;1008.9;;;24.72;28.09
54459;BME280;40368;49.350;8.152;2022-07-18T02:24:28;1009;;;24.75;28.18
54459;BME280;40368;49.350;8.152;2022-07-18T02:25:28;1009;;;24.71;28.1
54459;BME280;40368;49.350;8.152;2022-07-18T02:26:28;1009;;;24.78;28.03
54459;BME280;40368;49.350;8.152;2022-07-18T02:27:28;1009;;;24.77;27.93
54459;BME280;40368;49.350;8.152;2022-07-18T02:28:28;1009;;;24.71;28.25
54459;BME280;40368;49.350;8.152;2022-07-18T02:29:28;1008.9;;;24.78;28.14
54459;BME280;40368;49.350;8.152;2022-07-18T02:30:28;1008.9;;;24.8;28.03
54459;BME280;40368;49.350;8.152;2022-07-18T02:31:28;1009;;;24.72;28.1
54459;BME280;40368;49.350;8.152;2022-07-18T02:32:28;1009;;;24.64;28.36
54459;BME280;40368;49.350;8.152;2022-07-18T02:33:28;1009;;;24.57;28.25
54459;BME280;40368;49.350;8.152;2022-07-18T02:34:28;1009;;;24.52;28.55
54459;BME280;40368;49.350;8.152;2022-07-18T02:35:28;1009;;;24.47;28.58
54459;BME280;40368;49.350;8.152;2022-07-18T02:36:28;1009;;;24.48;28.71
54459;BME280;40368;49.350;8.152;2022-07-18T02:37:28;1009;;;24.54;28.53
54459;BME280;40368;49.350;8.152;2022-07-18T02:38:28;1009;;;24.58;28.6
54459;BME280;40368;49.350;8.152;2022-07-18T02:39:28;1009;;;24.54;28.82
54459;BME280;40368;49.350;8.152;2022-07-18T02:40:28;1008.9;;;24.55;28.61
54459;BME280;40368;49.350;8.152;2022-07-18T02:41:28;1009;;;24.5;28.53
54459;BME280;40368;49.350;8.152;2022-07-18T02:42:28;1008.9;;;24.44;28.58
54459;BME280;40368;49.350;8.152;2022-07-18T02:43:28;1008.9;;;24.53;28.64
54459;BME280;40368;49.350;8.152;2022-07-18T02:44:28;1008.9;;;24.62;28.39
54459;BME280;40368;49.350;8.152;2022-07-18T02:45:28;1008.9;;;24.56;28.58
54459;BME280;40368;49.350;8.152;2022-07-18T02:46:29;1008.9;;;24.47;28.72
54459;BME280;40368;49.350;8.152;2022-07-18T02:47:28;1008.9;;;24.42;28.84
54459;BME280;40368;49.350;8.152;2022-07-18T02:48:28;1008.9;;;24.33;28.98
54459;BME280;40368;49.350;8.152;2022-07-18T02:49:28;1008.9;;;24.3;29
54459;BME280;40368;49.350;8.152;2022-07-18T02:50:29;1008.9;;;24.31;28.95
54459;BME280;40368;49.350;8.152;2022-07-18T02:51:28;1008.9;;;24.35;28.83
54459;BME280;40368;49.350;8.152;2022-07-18T02:52:29;1008.8;;;24.31;28.99
54459;BME280;40368;49.350;8.152;2022-07-18T02:53:28;1008.9;;;24.3;29.05
54459;BME280;40368;49.350;8.152;2022-07-18T02:54:38;1008.8;;;24.29;28.81
54459;BME280;40368;49.350;8.152;2022-07-18T02:55:28;1008.9;;;24.3;28.89
54459;BME280;40368;49.350;8.152;2022-07-18T02:56:28;1008.8;;;24.3;29
54459;BME280;40368;49.350;8.152;2022-07-18T02:57:28;1008.9;;;24.37;28.88
54459;BME280;40368;49.350;8.152;2022-07-18T02:58:28;1008.9;;;24.35;28.97
54459;BME280;40368;49.350;8.152;2022-07-18T02:59:28;1008.9;;;24.29;29.22
54459;BME280;40368;49.350;8.152;2022-07-18T03:00:28;1008.9;;;24.28;29.18
54459;BME280;40368;49.350;8.152;2022-07-18T03:01:28;1008.9;;;24.27;29.14
54459;BME280;40368;49.350;8.152;2022-07-18T03:02:28;1008.8;;;24.22;28.95
54459;BME280;40368;49.350;8.152;2022-07-18T03:03:28;1008.9;;;24.2;29.17
54459;BME280;40368;49.350;8.152;2022-07-18T03:04:28;1008.8;;;24.22;29.12
54459;BME280;40368;49.350;8.152;2022-07-18T03:05:28;1008.9;;;24.15;29.19
54459;BME280;40368;49.350;8.152;2022-07-18T03:06:28;1008.8;;;24.22;29.21
54459;BME280;40368;49.350;8.152;2022-07-18T03:07:28;1008.8;;;24.23;29.21
54459;BME280;40368;49.350;8.152;2022-07-18T03:08:28;1008.8;;;24.2;29.14
54459;BME280;40368;49.350;8.152;2022-07-18T03:09:28;1008.8;;;24.18;29.19
54459;BME280;40368;49.350;8.152;2022-07-18T03:10:28;1008.8;;;24.17;29.21
54459;BME280;40368;49.350;8.152;2022-07-18T03:11:28;1008.8;;;24.15;29.3
54459;BME280;40368;49.350;8.152;2022-07-18T03:12:28;1008.8;;;24.19;29.1
54459;BME280;40368;49.350;8.152;2022-07-18T03:13:28;1008.8;;;24.12;29.26
54459;BME280;40368;49.350;8.152;2022-07-18T03:14:28;1008.8;;;24.08;29.32
54459;BME280;40368;49.350;8.152;2022-07-18T03:15:28;1008.8;;;24.03;29.32
54459;BME280;40368;49.350;8.152;2022-07-18T03:16:29;1008.8;;;23.99;29.48
54459;BME280;40368;49.350;8.152;2022-07-18T03:17:28;1008.9;;;24.08;29.47
54459;BME280;40368;49.350;8.152;2022-07-18T03:18:29;1008.8;;;24.13;29.31
54459;BME280;40368;49.350;8.152;2022-07-18T03:19:28;1008.9;;;24.14;29.32
54459;BME280;40368;49.350;8.152;2022-07-18T03:20:28;1008.9;;;24.13;29.17
54459;BME280;40368;49.350;8.152;2022-07-18T03:21:29;1008.9;;;24.1;29.03
54459;BME280;40368;49.350;8.152;2022-07-18T03:22:28;1008.8;;;24.18;29.08
54459;BME280;40368;49.350;8.152;2022-07-18T03:23:28;1008.9;;;24.28;28.89
54459;BME280;40368;49.350;8.152;2022-07-18T03:24:28;1008.8;;;24.27;29.07
54459;BME280;40368;49.350;8.152;2022-07-18T03:25:28;1008.9;;;24.26;29.11
54459;BME280;40368;49.350;8.152;2022-07-18T03:26:29;1008.9;;;24.25;29.17
54459;BME280;40368;49.350;8.152;2022-07-18T03:27:29;1008.9;;;24.2;29.02
54459;BME280;40368;49.350;8.152;2022-07-18T03:28:28;1008.9;;;24.22;29.26
54459;BME280;40368;49.350;8.152;2022-07-18T03:29:28;1008.9;;;24.22;29.25
54459;BME280;40368;49.350;8.152;2022-07-18T03:30:28;1008.9;;;24.27;29.18
54459;BME280;40368;49.350;8.152;2022-07-18T03:31:28;1008.9;;;24.2;29.18
54459;BME280;40368;49.350;8.152;2022-07-18T03:32:28;1008.9;;;24.15;29.3
54459;BME280;40368;49.350;8.152;2022-07-18T03:33:28;1008.9;;;24.18;29.19
54459;BME280;40368;49.350;8.152;2022-07-18T03:34:28;1008.9;;;24.28;29.15
54459;BME280;40368;49.350;8.152;2022-07-18T03:35:28;1009;;;24.34;29.05
54459;BME280;40368;49.350;8.152;2022-07-18T03:36:29;1008.9;;;24.31;28.88
54459;BME280;40368;49.350;8.152;2022-07-18T03:37:28;1008.9;;;24.28;29.13
54459;BME280;40368;49.350;8.152;2022-07-18T03:38:28;1008.9;;;24.22;29.12
54459;BME280;40368;49.350;8.152;2022-07-18T03:39:28;1008.9;;;24.25;29.09
54459;BME280;40368;49.350;8.152;2022-07-18T03:40:28;1008.9;;;24.27;29.16
54459;BME280;40368;49.350;8.152;2022-07-18T03:41:28;1008.9;;;24.31;28.93
54459;BME280;40368;49.350;8.152;2022-07-18T03:42:28;1008.9;;;24.3;28.96
54459;BME280;40368;49.350;8.152;2022-07-18T03:43:29;1008.9;;;24.3;29.17
54459;BME280;40368;49.350;8.152;2022-07-18T03:44:28;1009;;;24.26;28.9
54459;BME280;40368;49.350;8.152;2022-07-18T03:45:28;1009;;;24.22;29.13
54459;BME280;40368;49.350;8.152;2022-07-18T03:46:29;1009;;;24.15;29.52
54459;BME280;40368;49.350;8.152;2022-07-18T03:47:28;1009;;;24.13;29.41
54459;BME280;40368;49.350;8.152;2022-07-18T03:48:29;1009;;;24.09;29.38
54459;BME280;40368;49.350;8.152;2022-07-18T03:49:28;1009;;;24.12;29.51
54459;BME280;40368;49.350;8.152;2022-07-18T03:50:28;1009;;;24.14;29.45
54459;BME280;40368;49.350;8.152;2022-07-18T03:51:28;1009;;;24.06;29.47
54459;BME280;40368;49.350;8.152;2022-07-18T03:52:28;1009.1;;;24.01;29.41
54459;BME280;40368;49.350;8.152;2022-07-18T03:53:28;1009.1;;;23.94;29.72
54459;BME280;40368;49.350;8.152;2022-07-18T03:54:45;1009;;;23.92;29.75
54459;BME280;40368;49.350;8.152;2022-07-18T03:55:30;1009;;;23.88;29.85
54459;BME280;40368;49.350;8.152;2022-07-18T03:56:28;1009;;;23.86;29.87
54459;BME280;40368;49.350;8.152;2022-07-18T03:57:29;1009;;;23.87;29.84
54459;BME280;40368;49.350;8.152;2022-07-18T03:58:29;1009;;;23.99;29.64
54459;BME280;40368;49.350;8.152;2022-07-18T03:59:28;1009.1;;;23.99;29.77
54459;BME280;40368;49.350;8.152;2022-07-18T04:00:29;1009;;;23.98;29.6
54459;BME280;40368;49.350;8.152;2022-07-18T04:01:28;1009.1;;;24.02;29.52
54459;BME280;40368;49.350;8.152;2022-07-18T04:02:28;1009.1;;;24.03;29.5
54459;BME280;40368;49.350;8.152;2022-07-18T04:03:29;1009.1;;;24;29.69
54459;BME280;40368;49.350;8.152;2022-07-18T04:04:28;1009.1;;;24;29.77
54459;BME280;40368;49.350;8.152;2022-07-18T04:05:28;1009.1;;;23.99;29.7
54459;BME280;40368;49.350;8.152;2022-07-18T04:06:29;1009.1;;;23.94;29.65
54459;BME280;40368;49.350;8.152;2022-07-18T04:07:28;1009.1;;;23.85;29.93
54459;BME280;40368;49.350;8.152;2022-07-18T04:08:29;1009.1;;;23.78;30.1
54459;BME280;40368;49.350;8.152;2022-07-18T04:09:28;1009.1;;;23.88;29.76
54459;BME280;40368;49.350;8.152;2022-07-18T04:10:28;1009.1;;;23.87;29.92
54459;BME280;40368;49.350;8.152;2022-07-18T04:11:28;1009.1;;;23.88;30.03
54459;BME280;40368;49.350;8.152;2022-07-18T04:12:28;1009.1;;;23.88;29.99
54459;BME280;40368;49.350;8.152;2022-07-18T04:13:29;1009.1;;;23.92;29.83
54459;BME280;40368;49.350;8.152;2022-07-18T04:14:28;1009.1;;;23.98;29.58
54459;BME280;40368;49.350;8.152;2022-07-18T04:15:29;1009.1;;;24.04;29.57
54459;BME280;40368;49.350;8.152;2022-07-18T04:16:29;1009.1;;;24.03;29.5
54459;BME280;40368;49.350;8.152;2022-07-18T04:17:28;1009.2;;;23.95;29.83
54459;BME280;40368;49.350;8.152;2022-07-18T04:18:28;1009.1;;;23.86;29.94
54459;BME280;40368;49.350;8.152;2022-07-18T04:19:28;1009.2;;;23.87;30.06
54459;BME280;40368;49.350;8.152;2022-07-18T04:20:28;1009.2;;;23.85;30.07
54459;BME280;40368;49.350;8.152;2022-07-18T04:21:28;1009.2;;;23.79;30.32
54459;BME280;40368;49.350;8.152;2022-07-18T04:22:28;1009.2;;;23.77;30.38
54459;BME280;40368;49.350;8.152;2022-07-18T04:23:28;1009.2;;;23.71;30.21
54459;BME280;40368;49.350;8.152;2022-07-18T04:24:28;1009.3;;;23.71;30.43
54459;BME280;40368;49.350;8.152;2022-07-18T04:25:29;1009.3;;;23.66;30.41
54459;BME280;40368;49.350;8.152;2022-07-18T04:26:28;1009.3;;;23.53;30.65
54459;BME280;40368;49.350;8.152;2022-07-18T04:27:28;1009.2;;;23.5;30.54
54459;BME280;40368;49.350;8.152;2022-07-18T04:28:29;1009.2;;;23.49;30.66
54459;BME280;40368;49.350;8.152;2022-07-18T04:29:28;1009.2;;;23.47;30.75
54459;BME280;40368;49.350;8.152;2022-07-18T04:30:29;1009.2;;;23.46;30.67
54459;BME280;40368;49.350;8.152;2022-07-18T04:31:28;1009.2;;;23.48;30.68
54459;BME280;40368;49.350;8.152;2022-07-18T04:32:28;1009.2;;;23.46;30.77
54459;BME280;40368;49.350;8.152;2022-07-18T04:33:28;1009.2;;;23.53;30.57
54459;BME280;40368;49.350;8.152;2022-07-18T04:34:28;1009.2;;;23.54;30.78
54459;BME280;40368;49.350;8.152;2022-07-18T04:35:29;1009.2;;;23.46;30.73
54459;BME280;40368;49.350;8.152;2022-07-18T04:36:28;1009.2;;;23.38;31
54459;BME280;40368;49.350;8.152;2022-07-18T04:37:29;1009.2;;;23.35;30.88
54459;BME280;40368;49.350;8.152;2022-07-18T04:38:28;1009.2;;;23.39;30.94
54459;BME280;40368;49.350;8.152;2022-07-18T04:39:28;1009.2;;;23.42;30.78
54459;BME280;40368;49.350;8.152;2022-07-18T04:40:29;1009.2;;;23.41;30.68
54459;BME280;40368;49.350;8.152;2022-07-18T04:41:28;1009.2;;;23.41;30.9
54459;BME280;40368;49.350;8.152;2022-07-18T04:42:28;1009.2;;;23.33;30.96
54459;BME280;40368;49.350;8.152;2022-07-18T04:43:28;1009.2;;;23.3;31.06
54459;BME280;40368;49.350;8.152;2022-07-18T04:44:28;1009.2;;;23.31;31.1
54459;BME280;40368;49.350;8.152;2022-07-18T04:45:29;1009.2;;;23.31;30.91
54459;BME280;40368;49.350;8.152;2022-07-18T04:46:28;1009.1;;;23.31;30.94
54459;BME280;40368;49.350;8.152;2022-07-18T04:47:29;1009.1;;;23.29;31.11
54459;BME280;40368;49.350;8.152;2022-07-18T04:48:28;1009.1;;;23.32;31.03
54459;BME280;40368;49.350;8.152;2022-07-18T04:49:28;1009.1;;;23.34;30.9
54459;BME280;40368;49.350;8.152;2022-07-18T04:50:28;1009.1;;;23.43;30.75
54459;BME280;40368;49.350;8.152;2022-07-18T04:51:28;1009.1;;;23.44;30.79
54459;BME280;40368;49.350;8.152;2022-07-18T04:52:34;1009.1;;;23.44;30.77
54459;BME280;40368;49.350;8.152;2022-07-18T04:53:29;1009.1;;;23.48;30.91
54459;BME280;40368;49.350;8.152;2022-07-18T04:54:51;1009.1;;;23.46;30.86
54459;BME280;40368;49.350;8.152;2022-07-18T04:55:29;1009.1;;;23.45;30.71
54459;BME280;40368;49.350;8.152;2022-07-18T04:56:29;1009.1;;;23.52;30.54
54459;BME280;40368;49.350;8.152;2022-07-18T04:57:29;1009;;;23.6;30.55
54459;BME280;40368;49.350;8.152;2022-07-18T04:58:28;1009;;;23.58;30.69
54459;BME280;40368;49.350;8.152;2022-07-18T04:59:28;1009;;;23.55;30.63
54459;BME280;40368;49.350;8.152;2022-07-18T05:00:29;1009.1;;;23.53;30.6
54459;BME280;40368;49.350;8.152;2022-07-18T05:01:28;1009;;;23.51;30.76
54459;BME280;40368;49.350;8.152;2022-07-18T05:02:28;1009.1;;;23.48;30.79
54459;BME280;40368;49.350;8.152;2022-07-18T05:03:28;1009.1;;;23.5;30.88
54459;BME280;40368;49.350;8.152;2022-07-18T05:04:28;1009.1;;;23.47;30.97
54459;BME280;40368;49.350;8.152;2022-07-18T05:05:29;1009.1;;;23.42;30.8
54459;BME280;40368;49.350;8.152;2022-07-18T05:06:28;1009;;;23.46;30.77
54459;BME280;40368;49.350;8.152;2022-07-18T05:07:29;1009;;;23.48;30.97
54459;BME280;40368;49.350;8.152;2022-07-18T05:08:29;1009.1;;;23.47;30.96
54459;BME280;40368;49.350;8.152;2022-07-18T05:09:28;1009.1;;;23.44;30.95
54459;BME280;40368;49.350;8.152;2022-07-18T05:10:28;1009;;;23.41;30.93
54459;BME280;40368;49.350;8.152;2022-07-18T05:11:28;1009.1;;;23.51;30.83
54459;BME280;40368;49.350;8.152;2022-07-18T05:12:28;1009;;;23.53;30.74
54459;BME280;40368;49.350;8.152;2022-07-18T05:13:28;1009;;;23.54;30.79
54459;BME280;40368;49.350;8.152;2022-07-18T05:14:29;1009;;;23.55;30.68
54459;BME280;40368;49.350;8.152;2022-07-18T05:15:28;1009;;;23.61;30.69
54459;BME280;40368;49.350;8.152;2022-07-18T05:16:28;1009;;;23.67;30.39
54459;BME280;40368;49.350;8.152;2022-07-18T05:17:29;1009;;;23.73;30.47
54459;BME280;40368;49.350;8.152;2022-07-18T05:18:28;1009;;;23.74;30.66
54459;BME280;40368;49.350;8.152;2022-07-18T05:19:28;1009.1;;;23.7;30.68
54459;BME280;40368;49.350;8.152;2022-07-18T05:20:28;1009.1;;;23.69;30.65
54459;BME280;40368;49.350;8.152;2022-07-18T05:21:29;1009.1;;;23.64;30.8
54459;BME280;40368;49.350;8.152;2022-07-18T05:22:28;1009.1;;;23.62;30.68
54459;BME280;40368;49.350;8.152;2022-07-18T05:23:28;1009.1;;;23.56;30.91
54459;BME280;40368;49.350;8.152;2022-07-18T05:24:29;1009.2;;;23.55;30.82
54459;BME280;40368;49.350;8.152;2022-07-18T05:25:28;1009.1;;;23.56;31.01
54459;BME280;40368;49.350;8.152;2022-07-18T05:26:28;1009.2;;;23.58;30.69
54459;BME280;40368;49.350;8.152;2022-07-18T05:27:29;1009.2;;;23.6;30.99
54459;BME280;40368;49.350;8.152;2022-07-18T05:28:29;1009.2;;;23.65;30.67
54459;BME280;40368;49.350;8.152;2022-07-18T05:29:29;1009.2;;;23.73;30.48
54459;BME280;40368;49.350;8.152;2022-07-18T05:30:30;1009.2;;;23.82;30.62
54459;BME280;40368;49.350;8.152;2022-07-18T05:31:28;1009.2;;;23.84;30.21